Time;durP1;ratioP1;P1;durP2;ratioP2;P2;SDS_P1;SDS_P2;PMS_P1;PMS_P2;Temp;Humidity;BMP_temperature;BMP_pressure;BME280_temperature;BME280_humidity;BME280_pressure;Samples;Min_cycle;Max_cycle;Signal;HPM_P1;HPM_P2
2021/05/17 00:02:02;;;;;;;12.27;7.13;;;12.00;79.40;;;;;;5101288;28;20396;-82
2021/05/17 00:04:34;;;;;;;9.30;6.38;;;12.00;79.50;;;;;;5093468;28;20044;-81
2021/05/17 00:07:02;;;;;;;9.23;6.95;;;12.00;79.60;;;;;;5089707;28;20036;-85
2021/05/17 00:09:28;;;;;;;11.65;7.55;;;12.00;79.50;;;;;;5087915;28;20041;-81
2021/05/17 00:11:54;;;;;;;10.38;7.07;;;11.90;79.60;;;;;;5096382;28;20123;-82
2021/05/17 00:14:21;;;;;;;11.77;7.40;;;11.90;79.60;;;;;;5088586;28;20063;-82
2021/05/17 00:16:47;;;;;;;12.55;7.38;;;11.90;79.70;;;;;;5089923;28;20048;-81
2021/05/17 00:19:13;;;;;;;12.27;8.77;;;11.90;79.70;;;;;;5088928;28;20503;-82
2021/05/17 00:21:40;;;;;;;10.07;7.53;;;11.90;79.70;;;;;;5106716;28;20043;-81
2021/05/17 00:24:07;;;;;;;9.43;7.35;;;11.90;79.80;;;;;;5088873;28;20071;-81
2021/05/17 00:26:33;;;;;;;10.60;7.63;;;11.80;79.80;;;;;;5089709;28;20042;-80
2021/05/17 00:28:59;;;;;;;15.23;8.30;;;11.80;79.80;;;;;;5106269;28;20119;-80
2021/05/17 00:31:25;;;;;;;10.80;7.70;;;11.80;79.70;;;;;;5106026;28;20040;-80
2021/05/17 00:33:50;;;;;;;9.90;7.53;;;11.70;79.70;;;;;;5106216;28;20040;-80
2021/05/17 00:36:16;;;;;;;10.68;6.82;;;11.70;79.80;;;;;;5088715;28;20123;-81
2021/05/17 00:38:42;;;;;;;9.48;8.02;;;11.70;79.80;;;;;;5106360;28;20499;-80
2021/05/17 00:41:09;;;;;;;13.65;7.95;;;11.70;79.80;;;;;;5073199;28;20056;-80
2021/05/17 00:43:38;;;;;;;10.00;7.57;;;11.70;79.90;;;;;;5089282;28;20081;-81
2021/05/17 00:46:08;;;;;;;13.60;8.63;;;11.70;80.00;;;;;;5088552;28;20044;-85
2021/05/17 00:48:34;;;;;;;13.93;8.15;;;11.70;80.10;;;;;;5088445;28;20119;-81
2021/05/17 00:51:01;;;;;;;14.18;8.50;;;11.60;80.00;;;;;;5088613;28;20095;-80
2021/05/17 00:53:27;;;;;;;13.70;8.55;;;11.60;80.10;;;;;;5105107;28;20044;-80
2021/05/17 00:55:53;;;;;;;12.77;9.55;;;11.60;80.00;;;;;;5089014;28;20457;-80
2021/05/17 00:58:19;;;;;;;13.82;9.27;;;11.60;80.10;;;;;;5088438;28;20047;-79
2021/05/17 01:00:45;;;;;;;12.45;8.50;;;11.60;80.20;;;;;;5088739;28;20444;-81
2021/05/17 01:03:11;;;;;;;12.68;8.95;;;11.60;80.20;;;;;;5102874;28;20044;-81
2021/05/17 01:05:38;;;;;;;12.60;9.20;;;11.60;80.30;;;;;;5072254;28;20110;-80
2021/05/17 01:08:04;;;;;;;15.88;9.07;;;11.60;80.40;;;;;;5055277;28;20040;-80
2021/05/17 01:10:30;;;;;;;13.93;9.43;;;11.60;80.50;;;;;;5070345;28;20060;-80
2021/05/17 01:12:56;;;;;;;14.13;9.32;;;11.60;80.50;;;;;;5068938;28;20044;-81
2021/05/17 01:15:22;;;;;;;12.65;8.70;;;11.60;80.60;;;;;;5071396;28;20044;-80
2021/05/17 01:17:51;;;;;;;12.80;8.75;;;11.60;80.60;;;;;;5071901;28;20098;-82
2021/05/17 01:20:22;;;;;;;13.65;9.70;;;11.60;80.60;;;;;;5071435;28;20037;-81
2021/05/17 01:25:16;;;;;;;16.55;10.35;;;11.60;80.70;;;;;;5070865;28;20044;-82
2021/05/17 01:27:42;;;;;;;12.82;9.82;;;11.60;80.80;;;;;;5038942;28;20049;-81
2021/05/17 01:30:08;;;;;;;13.10;9.57;;;11.60;80.90;;;;;;5072045;28;20041;-81
2021/05/17 01:32:35;;;;;;;15.07;10.45;;;11.60;80.90;;;;;;5071375;28;20040;-81
2021/05/17 01:35:00;;;;;;;13.82;10.10;;;11.60;80.90;;;;;;5054922;28;20454;-81
2021/05/17 01:37:28;;;;;;;15.02;10.38;;;11.60;80.90;;;;;;5037857;28;20139;-81
2021/05/17 01:39:54;;;;;;;15.05;10.40;;;11.60;81.00;;;;;;5071487;28;20052;-80
2021/05/17 01:42:21;;;;;;;16.65;11.02;;;11.60;81.00;;;;;;5054051;28;20056;-81
2021/05/17 01:44:47;;;;;;;16.67;10.73;;;11.60;81.00;;;;;;5071770;28;20476;-81
2021/05/17 01:47:13;;;;;;;17.88;11.70;;;11.60;81.00;;;;;;5054324;28;20094;-86
2021/05/17 01:49:39;;;;;;;19.15;9.80;;;11.60;81.00;;;;;;5054634;28;20102;-80
2021/05/17 01:52:05;;;;;;;13.60;10.45;;;11.60;81.10;;;;;;5071276;28;20477;-81
2021/05/17 01:54:31;;;;;;;15.15;10.88;;;11.60;81.10;;;;;;5053727;28;20056;-81
2021/05/17 01:56:57;;;;;;;15.88;12.15;;;11.60;81.10;;;;;;5071405;28;20446;-81
2021/05/17 01:59:30;;;;;;;14.57;10.63;;;11.60;81.10;;;;;;5070291;28;20485;-81
2021/05/17 02:01:56;;;;;;;18.77;11.25;;;11.60;81.30;;;;;;5071567;28;20048;-81
2021/05/17 02:04:23;;;;;;;15.25;10.43;;;11.60;81.30;;;;;;5071157;28;20100;-82
2021/05/17 02:06:49;;;;;;;16.70;12.05;;;11.60;81.20;;;;;;5055438;28;20047;-80
2021/05/17 02:09:16;;;;;;;16.90;11.93;;;11.60;81.30;;;;;;5054688;28;20405;-82
2021/05/17 02:11:42;;;;;;;16.27;11.07;;;11.60;81.40;;;;;;5071413;28;20064;-79
2021/05/17 02:14:09;;;;;;;16.00;11.32;;;11.50;81.30;;;;;;5054767;28;20382;-81
2021/05/17 02:16:35;;;;;;;14.90;11.10;;;11.50;81.30;;;;;;5071259;28;20049;-80
2021/05/17 02:19:01;;;;;;;15.77;10.75;;;11.60;81.50;;;;;;5071498;28;20055;-81
2021/05/17 02:21:27;;;;;;;15.95;12.75;;;11.50;81.50;;;;;;5054456;28;20048;-81
2021/05/17 02:23:53;;;;;;;16.05;11.93;;;11.50;81.50;;;;;;5038158;28;20059;-80
2021/05/17 02:26:19;;;;;;;15.40;11.48;;;11.50;81.50;;;;;;5070501;28;20102;-84
2021/05/17 02:28:45;;;;;;;16.50;11.40;;;11.50;81.50;;;;;;5054177;28;20052;-80
2021/05/17 02:31:12;;;;;;;15.73;11.52;;;11.50;81.50;;;;;;5037750;28;20121;-80
2021/05/17 02:33:38;;;;;;;17.92;12.25;;;11.50;81.60;;;;;;5070250;28;20036;-81
2021/05/17 02:36:04;;;;;;;16.45;12.50;;;11.50;81.60;;;;;;5070795;28;20048;-81
2021/05/17 02:38:30;;;;;;;16.60;11.95;;;11.50;81.70;;;;;;5053300;28;20048;-81
2021/05/17 02:40:57;;;;;;;15.52;10.32;;;11.50;81.80;;;;;;5070325;28;20057;-78
2021/05/17 02:43:23;;;;;;;18.40;12.50;;;11.50;81.80;;;;;;5053703;28;20045;-86
2021/05/17 02:45:49;;;;;;;15.70;11.65;;;11.50;81.80;;;;;;5053680;28;20349;-77
2021/05/17 02:48:15;;;;;;;15.18;11.02;;;11.50;81.90;;;;;;5053942;28;20052;-79
2021/05/17 02:50:44;;;;;;;18.95;11.32;;;11.50;81.90;;;;;;5069769;28;20206;-80
2021/05/17 02:53:37;;;;;;;17.38;13.27;;;11.50;82.00;;;;;;5070437;28;20045;-80
2021/05/17 02:56:13;;;;;;;16.48;11.15;;;11.50;82.20;;;;;;5086477;28;20044;-80
2021/05/17 02:58:41;;;;;;;16.73;12.45;;;11.50;82.20;;;;;;5053422;28;20052;-81
2021/05/17 03:01:08;;;;;;;21.05;12.57;;;11.50;82.10;;;;;;5070077;28;20067;-80
2021/05/17 03:03:47;;;;;;;15.60;12.50;;;11.50;82.00;;;;;;5077562;28;20068;-80
2021/05/17 03:06:40;;;;;;;19.25;13.23;;;11.50;82.10;;;;;;5073627;28;20043;-81
2021/05/17 03:09:09;;;;;;;15.48;11.38;;;11.50;82.50;;;;;;5090462;28;20036;-80
2021/05/17 03:11:39;;;;;;;18.98;12.07;;;11.50;82.10;;;;;;5089623;28;20059;-80
2021/05/17 03:14:05;;;;;;;17.05;13.15;;;11.50;82.10;;;;;;5073194;28;20075;-80
2021/05/17 03:16:31;;;;;;;16.30;12.40;;;11.50;82.10;;;;;;5054419;28;20049;-82
2021/05/17 03:18:57;;;;;;;18.65;13.55;;;11.50;82.10;;;;;;5053584;28;20166;-80
2021/05/17 03:21:24;;;;;;;17.08;12.52;;;11.50;82.20;;;;;;5069857;28;20540;-85
2021/05/17 03:23:51;;;;;;;17.15;13.02;;;11.50;82.20;;;;;;5069239;28;20040;-81
2021/05/17 03:26:17;;;;;;;17.48;13.38;;;11.50;82.30;;;;;;5053111;28;20052;-81
2021/05/17 03:28:43;;;;;;;19.20;13.52;;;11.50;82.30;;;;;;5069509;28;20044;-81
2021/05/17 03:31:09;;;;;;;19.27;12.85;;;11.50;82.40;;;;;;5089364;28;20040;-82
2021/05/17 03:33:35;;;;;;;18.35;13.30;;;11.50;82.40;;;;;;5073526;28;20093;-82
2021/05/17 03:36:00;;;;;;;19.02;14.35;;;11.50;82.50;;;;;;5093974;28;20044;-79
2021/05/17 03:38:29;;;;;;;16.88;13.38;;;11.50;82.50;;;;;;5077319;28;20044;-81
2021/05/17 03:40:54;;;;;;;18.52;13.27;;;11.50;82.50;;;;;;5093344;28;20127;-81
2021/05/17 03:43:20;;;;;;;17.83;12.95;;;11.50;82.50;;;;;;5094196;28;20064;-81
2021/05/17 03:45:46;;;;;;;21.60;14.20;;;11.50;82.60;;;;;;5076508;28;20565;-81
2021/05/17 03:48:12;;;;;;;19.40;14.40;;;11.50;82.60;;;;;;5093224;28;20040;-84
2021/05/17 03:50:37;;;;;;;18.83;14.25;;;11.50;82.60;;;;;;5092811;28;20052;-82
2021/05/17 03:53:03;;;;;;;20.50;14.63;;;11.50;82.70;;;;;;5077050;28;20051;-82
2021/05/17 03:55:29;;;;;;;19.35;13.75;;;11.50;82.70;;;;;;5077033;28;20044;-82
2021/05/17 03:57:57;;;;;;;16.73;13.27;;;11.50;83.50;;;;;;5093097;28;20063;-81
2021/05/17 04:00:24;;;;;;;20.42;14.35;;;11.50;82.70;;;;;;5093888;28;20124;-81
2021/05/17 04:02:49;;;;;;;21.90;14.15;;;11.50;82.70;;;;;;5093093;28;20040;-81
2021/05/17 04:15:43;;;;;;;18.70;13.30;;;11.50;82.80;;;;;;5093280;28;20051;-82
2021/05/17 04:18:09;;;;;;;19.08;13.43;;;11.50;82.80;;;;;;5093722;28;20123;-81
2021/05/17 04:20:35;;;;;;;18.45;13.57;;;11.50;82.80;;;;;;5076537;28;20074;-87
2021/05/17 04:23:01;;;;;;;19.10;12.55;;;11.50;82.90;;;;;;5092922;28;20040;-81
2021/05/17 04:25:27;;;;;;;16.92;12.52;;;11.50;82.80;;;;;;5076294;28;20067;-81
2021/05/17 04:27:52;;;;;;;18.23;12.48;;;11.50;82.80;;;;;;5092517;28;20480;-82
2021/05/17 04:30:18;;;;;;;18.38;12.93;;;11.50;82.90;;;;;;5076902;28;20055;-81
2021/05/17 04:32:44;;;;;;;20.20;13.43;;;11.50;82.90;;;;;;5075856;28;20040;-81
2021/05/17 04:35:10;;;;;;;16.52;11.88;;;11.50;82.90;;;;;;5110223;28;20048;-82
2021/05/17 04:37:36;;;;;;;16.45;12.57;;;11.60;82.90;;;;;;5092816;28;20040;-87
2021/05/17 04:40:03;;;;;;;16.35;13.05;;;11.60;83.00;;;;;;5092550;28;20541;-83
2021/05/17 04:42:29;;;;;;;15.52;10.88;;;11.60;83.00;;;;;;5076017;28;20052;-81
2021/05/17 04:44:55;;;;;;;16.85;12.82;;;11.60;82.90;;;;;;5108251;28;20097;-81
2021/05/17 04:47:21;;;;;;;16.40;11.93;;;11.60;83.00;;;;;;5093126;28;20066;-82
2021/05/17 04:49:46;;;;;;;15.80;11.90;;;11.60;83.00;;;;;;5075401;28;20108;-82
2021/05/17 04:52:12;;;;;;;15.48;11.30;;;11.60;82.90;;;;;;5086456;28;20575;-82
2021/05/17 04:54:38;;;;;;;15.15;11.90;;;11.60;82.90;;;;;;5055923;28;20065;-83
2021/05/17 04:57:04;;;;;;;14.65;11.23;;;11.60;82.90;;;;;;5083097;28;20471;-82
2021/05/17 04:59:30;;;;;;;16.13;12.43;;;11.70;82.90;;;;;;5091891;28;20044;-83
2021/05/17 05:01:55;;;;;;;16.63;12.63;;;11.70;82.90;;;;;;5092032;28;20069;-82
2021/05/17 05:04:21;;;;;;;15.35;10.95;;;11.70;82.90;;;;;;5068175;28;20106;-83
2021/05/17 05:06:47;;;;;;;15.95;11.32;;;11.70;82.90;;;;;;5061108;28;20067;-82
2021/05/17 05:09:13;;;;;;;19.20;11.70;;;11.70;82.90;;;;;;5102533;28;20549;-82
2021/05/17 05:11:39;;;;;;;14.98;9.98;;;11.70;82.70;;;;;;5105268;28;20048;-82
2021/05/17 05:14:05;;;;;;;14.25;10.40;;;11.70;82.80;;;;;;5101015;28;20044;-82
2021/05/17 05:16:30;;;;;;;13.27;9.90;;;11.70;82.70;;;;;;5083986;28;20119;-81
2021/05/17 05:18:56;;;;;;;13.90;9.88;;;11.70;82.70;;;;;;5080233;28;20038;-81
2021/05/17 05:21:23;;;;;;;13.88;9.70;;;11.80;82.70;;;;;;5066900;28;20040;-82
2021/05/17 05:23:48;;;;;;;13.10;9.13;;;11.80;82.70;;;;;;5077437;28;20544;-89
2021/05/17 05:31:47;;;;;;;13.63;10.02;;;11.80;82.60;;;;;;5095343;28;20044;-81
2021/05/17 05:34:13;;;;;;;12.82;10.48;;;11.80;82.70;;;;;;5063089;28;20044;-85
2021/05/17 05:36:39;;;;;;;10.02;6.40;;;11.90;82.70;;;;;;5080959;28;20142;-84
2021/05/17 05:39:08;;;;;;;9.68;6.82;;;12.00;82.80;;;;;;5092480;28;20040;-85
2021/05/17 05:41:34;;;;;;;14.43;9.43;;;12.30;82.80;;;;;;5077780;28;21200;-84
2021/05/17 05:44:02;;;;;;;15.10;10.40;;;12.40;82.00;;;;;;5069203;28;20529;-82
2021/05/17 05:46:28;;;;;;;12.13;9.70;;;12.40;81.80;;;;;;5077332;28;20036;-86
2021/05/17 05:48:57;;;;;;;15.05;10.07;;;12.30;81.90;;;;;;5066338;28;20045;-86
2021/05/17 05:51:24;;;;;;;17.55;10.43;;;12.30;81.90;;;;;;5047293;28;20056;-83
2021/05/17 05:53:51;;;;;;;14.10;9.85;;;12.30;81.90;;;;;;5043388;28;20075;-83
2021/05/17 05:56:17;;;;;;;12.25;9.45;;;12.30;82.00;;;;;;5089457;28;20094;-87
2021/05/17 05:58:43;;;;;;;14.65;10.32;;;12.20;82.00;;;;;;5079531;28;20087;-81
2021/05/17 06:01:10;;;;;;;13.90;9.15;;;12.20;82.30;;;;;;5086684;28;20043;-84
2021/05/17 06:03:36;;;;;;;13.80;10.38;;;12.20;82.30;;;;;;5075370;28;20045;-83
2021/05/17 06:06:02;;;;;;;15.00;10.32;;;12.20;82.60;;;;;;5070462;28;20122;-84
2021/05/17 06:08:28;;;;;;;15.40;11.10;;;12.20;82.60;;;;;;5062899;28;20075;-87
2021/05/17 06:10:58;;;;;;;15.02;10.63;;;12.10;82.60;;;;;;5090294;28;20044;-82
2021/05/17 06:13:24;;;;;;;14.95;10.77;;;12.10;82.80;;;;;;5108264;28;20047;-85
2021/05/17 06:15:50;;;;;;;17.08;11.35;;;12.20;82.80;;;;;;5065516;28;20075;-84
2021/05/17 06:18:16;;;;;;;14.32;11.20;;;12.20;82.70;;;;;;5079569;28;20047;-78
2021/05/17 06:20:42;;;;;;;15.52;11.35;;;12.20;82.70;;;;;;5055674;28;20044;-82
2021/05/17 06:23:10;;;;;;;15.32;10.75;;;12.20;82.80;;;;;;5068548;28;20036;-79
2021/05/17 06:25:36;;;;;;;16.20;11.20;;;12.20;82.80;;;;;;5053529;28;20052;-79
2021/05/17 06:28:03;;;;;;;16.80;11.23;;;12.20;82.80;;;;;;5069667;28;20488;-80
2021/05/17 06:30:29;;;;;;;14.95;11.48;;;12.20;82.90;;;;;;5053758;28;20044;-79
2021/05/17 06:32:56;;;;;;;17.45;12.57;;;12.30;82.90;;;;;;5053347;28;20072;-85
2021/05/17 06:35:27;;;;;;;17.88;13.27;;;12.30;83.10;;;;;;5053132;28;20048;-80
2021/05/17 06:37:56;;;;;;;18.77;13.20;;;12.30;82.90;;;;;;5070873;28;20052;-83
2021/05/17 06:40:22;;;;;;;18.15;13.15;;;12.30;83.00;;;;;;5070507;28;20050;-81
2021/05/17 06:42:48;;;;;;;24.30;14.60;;;12.40;83.00;;;;;;5069179;28;20127;-81
2021/05/17 06:45:14;;;;;;;17.77;14.07;;;12.50;83.10;;;;;;5070318;28;20058;-79
2021/05/17 06:47:40;;;;;;;18.95;14.40;;;12.50;83.00;;;;;;5053896;28;20044;-80
2021/05/17 06:50:09;;;;;;;27.42;15.40;;;12.50;83.10;;;;;;5069990;28;20055;-82
2021/05/17 06:52:34;;;;;;;17.98;13.63;;;12.60;83.20;;;;;;5086771;28;20044;-82
2021/05/17 06:55:04;;;;;;;18.25;13.80;;;12.60;83.10;;;;;;5069976;28;20507;-81
2021/05/17 07:00:00;;;;;;;20.13;14.32;;;12.70;83.00;;;;;;5054116;28;20489;-84
2021/05/17 07:02:26;;;;;;;16.98;12.70;;;12.70;83.00;;;;;;5053848;28;20044;-80
2021/05/17 07:04:52;;;;;;;19.35;13.38;;;12.80;83.00;;;;;;5070314;28;20044;-79
2021/05/17 07:07:24;;;;;;;18.77;13.13;;;12.90;82.90;;;;;;5070977;28;20052;-78
2021/05/17 07:12:36;;;;;;;18.35;13.00;;;13.00;82.50;;;;;;5069959;28;20075;-78
2021/05/17 07:15:05;;;;;;;18.42;13.23;;;13.00;82.40;;;;;;5069104;28;20037;-83
2021/05/17 07:17:31;;;;;;;18.73;12.95;;;13.10;82.30;;;;;;5070243;28;20044;-78
2021/05/17 07:19:57;;;;;;;17.02;12.38;;;13.20;82.90;;;;;;5037147;28;20060;-79
2021/05/17 07:25:10;;;;;;;14.07;11.05;;;13.30;81.60;;;;;;5069197;28;20041;-79
2021/05/17 07:27:36;;;;;;;15.02;12.68;;;13.40;81.40;;;;;;5053025;28;20067;-78
2021/05/17 07:30:03;;;;;;;18.42;11.98;;;13.50;81.40;;;;;;5052577;28;20482;-85
2021/05/17 07:32:29;;;;;;;15.35;11.13;;;13.60;81.30;;;;;;5053023;28;20424;-79
2021/05/17 07:34:55;;;;;;;15.23;12.52;;;13.60;81.20;;;;;;5069961;28;20048;-80
2021/05/17 07:37:24;;;;;;;16.60;11.77;;;13.60;81.10;;;;;;5052531;28;20118;-79
2021/05/17 07:39:49;;;;;;;16.77;12.05;;;13.60;81.00;;;;;;5053210;28;20048;-80
2021/05/17 07:42:15;;;;;;;12.82;11.43;;;13.50;80.90;;;;;;5052437;28;20147;-80
2021/05/17 07:44:41;;;;;;;17.02;11.38;;;13.60;80.80;;;;;;5086821;28;20125;-79
2021/05/17 07:47:07;;;;;;;12.50;11.20;;;13.60;80.70;;;;;;5051949;28;20070;-82
2021/05/17 07:49:36;;;;;;;14.27;11.30;;;13.70;80.50;;;;;;5069188;28;20040;-80
2021/05/17 07:52:03;;;;;;;16.73;10.88;;;13.70;80.50;;;;;;5069752;28;20044;-80
2021/05/17 07:54:29;;;;;;;13.30;10.50;;;13.80;80.40;;;;;;5052646;28;20048;-80
2021/05/17 07:56:58;;;;;;;13.98;10.85;;;13.80;80.30;;;;;;5036946;28;20045;-80
2021/05/17 07:59:27;;;;;;;12.13;10.25;;;13.90;80.30;;;;;;5052327;28;20128;-78
2021/05/17 08:01:55;;;;;;;14.85;9.98;;;13.90;80.20;;;;;;5069035;28;20553;-80
2021/05/17 08:04:21;;;;;;;15.13;11.00;;;13.90;80.80;;;;;;5052188;28;20426;-81
2021/05/17 08:06:47;;;;;;;12.57;9.82;;;14.00;80.10;;;;;;5052649;28;20048;-80
2021/05/17 08:09:13;;;;;;;13.00;9.82;;;14.00;80.10;;;;;;5052091;28;20137;-81
2021/05/17 08:11:39;;;;;;;13.90;10.18;;;14.00;80.00;;;;;;5068863;28;20410;-82
2021/05/17 08:14:04;;;;;;;13.90;9.98;;;14.00;80.00;;;;;;5034436;28;20072;-80
2021/05/17 08:16:32;;;;;;;15.18;9.02;;;14.10;79.80;;;;;;5051442;28;20049;-78
2021/05/17 08:18:58;;;;;;;15.85;10.02;;;14.10;79.70;;;;;;5069464;28;20507;-80
2021/05/17 08:21:24;;;;;;;13.30;10.05;;;14.20;79.60;;;;;;5055525;28;20048;-81
2021/05/17 08:23:52;;;;;;;11.88;9.00;;;14.30;79.50;;;;;;5072757;28;20167;-81
2021/05/17 08:26:18;;;;;;;11.18;8.98;;;14.30;79.40;;;;;;5072398;28;20044;-80
2021/05/17 08:28:46;;;;;;;14.48;9.82;;;14.30;79.30;;;;;;5056950;28;20041;-81
2021/05/17 08:31:14;;;;;;;12.38;9.50;;;14.40;79.00;;;;;;5072825;28;20473;-87
2021/05/17 08:33:40;;;;;;;13.07;9.18;;;14.50;78.70;;;;;;5057004;28;20052;-82
2021/05/17 08:36:06;;;;;;;11.70;9.45;;;14.50;78.50;;;;;;5072683;28;20488;-81
2021/05/17 08:38:32;;;;;;;10.02;8.63;;;14.50;78.10;;;;;;5055871;28;20047;-81
2021/05/17 08:40:58;;;;;;;9.98;8.70;;;14.60;77.90;;;;;;5072943;28;20417;-81
2021/05/17 08:43:25;;;;;;;12.65;8.38;;;14.60;77.60;;;;;;5071707;28;20451;-82
2021/05/17 08:45:51;;;;;;;10.90;8.65;;;14.70;77.40;;;;;;5055961;28;20040;-82
2021/05/17 08:48:16;;;;;;;12.30;8.27;;;14.70;77.20;;;;;;5072144;28;20044;-82
2021/05/17 08:50:42;;;;;;;10.50;8.63;;;14.70;76.90;;;;;;5073003;28;20477;-81
2021/05/17 08:53:10;;;;;;;10.65;8.55;;;14.80;76.90;;;;;;5072782;28;20119;-81
2021/05/17 08:55:36;;;;;;;12.88;9.13;;;14.80;76.70;;;;;;5072299;28;20304;-81
2021/05/17 08:58:02;;;;;;;9.77;8.27;;;14.80;76.60;;;;;;5073081;28;20071;-82
2021/05/17 09:00:28;;;;;;;10.80;8.63;;;14.90;76.50;;;;;;5089009;28;20079;-81
2021/05/17 09:02:54;;;;;;;10.88;8.90;;;14.90;76.40;;;;;;5039449;28;20389;-79
2021/05/17 09:05:31;;;;;;;11.98;9.18;;;15.00;76.40;;;;;;5055135;28;20068;-81
2021/05/17 09:08:02;;;;;;;9.65;7.68;;;15.10;76.70;;;;;;5072421;28;20051;-82
2021/05/17 09:10:37;;;;;;;10.43;7.50;;;15.20;76.60;;;;;;5054595;28;20048;-81
2021/05/17 09:13:04;;;;;;;8.23;6.10;;;15.30;76.50;;;;;;5071429;28;20063;-82
2021/05/17 09:15:32;;;;;;;7.38;6.18;;;15.40;76.00;;;;;;5071270;28;20048;-80
2021/05/17 09:17:59;;;;;;;8.00;6.20;;;15.50;75.60;;;;;;5039256;28;20133;-82
2021/05/17 09:20:31;;;;;;;8.38;5.88;;;15.50;75.20;;;;;;5071643;28;20816;-80
2021/05/17 09:23:16;;;;;;;6.63;5.53;;;15.60;74.80;;;;;;5072384;28;20048;-80
2021/05/17 09:26:06;;;;;;;7.32;5.03;;;15.50;74.20;;;;;;5071974;28;20036;-80
2021/05/17 09:28:40;;;;;;;6.75;5.45;;;15.50;73.50;;;;;;5071712;28;20461;-80
2021/05/17 09:31:09;;;;;;;8.38;5.13;;;15.50;73.70;;;;;;5071324;28;20045;-78
2021/05/17 09:33:55;;;;;;;6.20;5.50;;;15.50;73.80;;;;;;5071363;28;20057;-81
2021/05/17 09:36:39;;;;;;;9.85;5.78;;;15.40;73.40;;;;;;5070163;28;20052;-86
2021/05/17 09:39:10;;;;;;;8.70;6.30;;;15.30;73.90;;;;;;5071015;28;20402;-78
2021/05/17 09:41:43;;;;;;;8.95;6.60;;;15.20;74.20;;;;;;5054141;28;20135;-79
2021/05/17 09:44:10;;;;;;;9.23;6.00;;;15.20;74.90;;;;;;5071039;28;20044;-80
2021/05/17 09:46:55;;;;;;;7.80;6.30;;;15.10;75.30;;;;;;5070528;28;20040;-80
2021/05/17 09:49:51;;;;;;;8.73;5.60;;;15.10;75.70;;;;;;5070944;28;20040;-85
2021/05/17 09:52:23;;;;;;;7.10;5.60;;;15.10;76.10;;;;;;5069799;28;20489;-79
2021/05/17 09:54:52;;;;;;;5.82;4.95;;;15.10;76.30;;;;;;5087030;28;20405;-79
2021/05/17 09:57:23;;;;;;;7.05;4.82;;;15.20;76.30;;;;;;5070577;28;20052;-79
2021/05/17 09:59:51;;;;;;;6.97;4.95;;;15.30;76.30;;;;;;5070883;28;20045;-79
2021/05/17 10:02:33;;;;;;;6.50;4.20;;;15.30;76.10;;;;;;5054339;28;20113;-79
2021/05/17 10:05:09;;;;;;;6.95;4.30;;;15.30;76.10;;;;;;5070633;28;20056;-80
2021/05/17 10:07:35;;;;;;;5.80;4.32;;;15.30;75.90;;;;;;5053492;28;20417;-80
2021/05/17 10:10:01;;;;;;;6.47;4.90;;;15.30;75.80;;;;;;5070585;28;20049;-78
2021/05/17 10:12:27;;;;;;;6.40;4.15;;;15.40;75.90;;;;;;5053489;28;20048;-85
2021/05/17 10:14:53;;;;;;;5.53;3.95;;;15.50;75.80;;;;;;5054077;28;20404;-79
2021/05/17 10:17:20;;;;;;;5.63;4.00;;;15.50;75.60;;;;;;5070342;28;20051;-80
2021/05/17 10:19:49;;;;;;;5.32;4.10;;;15.60;75.50;;;;;;5070010;28;20116;-80
2021/05/17 10:22:15;;;;;;;6.15;3.90;;;15.60;75.30;;;;;;5069557;28;20056;-79
2021/05/17 10:24:45;;;;;;;7.45;5.47;;;15.60;75.20;;;;;;5068556;28;20040;-79
2021/05/17 10:27:11;;;;;;;6.03;3.67;;;15.50;74.90;;;;;;5071226;28;20500;-79
2021/05/17 10:29:38;;;;;;;3.42;2.20;;;15.40;74.80;;;;;;5069443;28;20516;-79
2021/05/17 10:32:06;;;;;;;2.65;1.38;;;15.40;74.60;;;;;;5053679;28;20397;-80
2021/05/17 10:34:41;;;;;;;1.40;0.93;;;15.30;74.60;;;;;;5069360;28;20040;-83
2021/05/17 10:37:16;;;;;;;3.10;1.15;;;15.30;75.50;;;;;;5070192;28;20052;-78
2021/05/17 10:39:45;;;;;;;3.10;2.13;;;15.20;75.50;;;;;;5069115;28;20153;-77
2021/05/17 10:47:45;;;;;;;5.20;2.60;;;15.00;75.20;;;;;;5069559;28;20036;-77
2021/05/17 10:50:21;;;;;;;5.40;3.20;;;15.00;75.50;;;;;;5069880;28;20047;-79
2021/05/17 10:52:47;;;;;;;5.13;3.85;;;15.00;75.70;;;;;;5036058;28;20118;-79
2021/05/17 10:55:14;;;;;;;5.72;4.75;;;15.10;75.90;;;;;;5052982;28;20473;-78
2021/05/17 11:00:34;;;;;;;7.70;5.50;;;15.40;77.10;;;;;;5070090;28;20040;-85
2021/05/17 11:03:06;;;;;;;7.18;5.28;;;15.50;76.30;;;;;;5086023;28;20037;-80
2021/05/17 11:05:32;;;;;;;9.40;7.95;;;15.70;76.10;;;;;;5069645;28;20114;-83
2021/05/17 11:08:05;;;;;;;10.57;6.80;;;15.80;75.70;;;;;;5069983;28;20045;-79
2021/05/17 11:10:35;;;;;;;10.57;7.10;;;15.90;75.40;;;;;;5052889;28;20044;-85
2021/05/17 11:13:11;;;;;;;6.38;3.95;;;16.00;75.10;;;;;;5086058;28;20066;-87
2021/05/17 11:15:46;;;;;;;11.93;5.00;;;16.10;74.50;;;;;;5063081;28;20051;-87
2021/05/17 11:18:12;;;;;;;8.68;5.85;;;16.40;73.50;;;;;;5090410;28;20047;-76
2021/05/17 11:20:38;;;;;;;29.98;12.55;;;16.70;73.40;;;;;;5104336;28;20059;-82
2021/05/17 11:23:05;;;;;;;21.33;11.70;;;17.10;73.50;;;;;;5081296;28;20119;-78
2021/05/17 11:28:42;;;;;;;12.35;7.00;;;17.90;74.90;;;;;;5058476;28;20071;-80
2021/05/17 11:31:43;;;;;;;9.52;6.53;;;18.10;72.90;;;;;;5088189;28;20130;-83
2021/05/17 11:34:19;;;;;;;10.35;7.15;;;18.20;72.00;;;;;;5075379;28;20074;-83
2021/05/17 11:36:50;;;;;;;9.73;6.28;;;18.20;71.30;;;;;;5069356;28;20116;-80
2021/05/17 11:39:33;;;;;;;8.43;6.18;;;18.30;71.10;;;;;;5061072;28;20033;-80
2021/05/17 11:42:00;;;;;;;8.32;5.00;;;18.30;70.60;;;;;;5076932;28;20134;-80
2021/05/17 11:44:42;;;;;;;9.25;4.95;;;18.20;70.20;;;;;;5081711;28;20052;-80
2021/05/17 11:47:24;;;;;;;9.25;4.63;;;18.20;69.80;;;;;;5055021;28;20076;-74
2021/05/17 11:49:51;;;;;;;7.93;4.50;;;18.10;68.80;;;;;;5086372;28;20059;-79
2021/05/17 11:52:21;;;;;;;8.38;5.80;;;18.00;69.50;;;;;;5076133;28;20116;-83
2021/05/17 11:55:02;;;;;;;8.75;6.47;;;17.80;69.40;;;;;;5079014;28;20040;-79
2021/05/17 11:57:32;;;;;;;11.05;6.43;;;17.60;69.50;;;;;;5089253;28;20048;-82
2021/05/17 12:00:17;;;;;;;8.88;6.93;;;17.40;70.40;;;;;;5073180;28;20106;-80
2021/05/17 12:02:48;;;;;;;7.10;5.50;;;17.20;70.40;;;;;;5073263;28;20055;-82
2021/05/17 12:05:15;;;;;;;7.28;5.45;;;17.00;71.10;;;;;;5081873;28;20055;-77
2021/05/17 12:07:44;;;;;;;6.97;4.75;;;16.90;71.30;;;;;;5079119;28;20397;-84
2021/05/17 12:10:11;;;;;;;7.45;5.57;;;16.80;71.50;;;;;;5088952;28;20040;-77
2021/05/17 12:12:37;;;;;;;7.60;5.70;;;16.70;71.80;;;;;;5056198;28;20052;-78
2021/05/17 12:15:05;;;;;;;8.70;6.30;;;16.60;72.10;;;;;;5071235;28;20036;-77
2021/05/17 12:17:35;;;;;;;8.73;6.40;;;16.50;72.40;;;;;;5089578;28;20049;-77
2021/05/17 12:20:05;;;;;;;9.15;6.30;;;16.50;72.60;;;;;;5074239;28;20048;-76
2021/05/17 12:22:37;;;;;;;6.30;4.60;;;16.40;72.90;;;;;;5058826;28;20047;-74
2021/05/17 12:25:09;;;;;;;5.65;4.13;;;16.30;72.60;;;;;;5076498;28;20032;-77
2021/05/17 12:27:35;;;;;;;5.45;3.35;;;16.20;72.10;;;;;;5095155;28;20056;-76
2021/05/17 12:30:04;;;;;;;4.88;3.28;;;16.10;72.20;;;;;;5075044;28;20054;-78
2021/05/17 12:32:35;;;;;;;4.63;2.72;;;16.00;72.30;;;;;;5094412;28;20039;-80
2021/05/17 12:35:07;;;;;;;4.88;2.58;;;15.90;72.40;;;;;;5091639;28;20051;-79
2021/05/17 12:37:36;;;;;;;6.13;2.15;;;15.70;72.50;;;;;;5065915;28;20102;-82
2021/05/17 12:40:29;;;;;;;3.35;2.47;;;15.70;72.80;;;;;;5090917;28;20051;-80
2021/05/17 12:43:16;;;;;;;3.75;2.30;;;15.60;72.60;;;;;;5072957;28;20064;-78
2021/05/17 12:46:00;;;;;;;6.15;2.60;;;15.50;73.10;;;;;;5082364;28;20032;-78
2021/05/17 12:48:43;;;;;;;4.95;3.03;;;15.40;73.20;;;;;;5077442;28;20058;-77
2021/05/17 12:51:19;;;;;;;5.05;2.70;;;15.30;73.70;;;;;;5071232;28;20040;-78
2021/05/17 12:53:45;;;;;;;4.47;3.00;;;15.30;73.80;;;;;;5088942;28;20040;-76
2021/05/17 12:56:32;;;;;;;5.10;3.22;;;15.30;74.00;;;;;;5087996;28;20177;-78
2021/05/17 12:59:10;;;;;;;5.95;3.50;;;15.30;74.40;;;;;;5070416;28;20040;-79
2021/05/17 13:01:38;;;;;;;6.13;3.65;;;15.40;74.50;;;;;;5071702;28;20044;-83
2021/05/17 13:04:04;;;;;;;6.05;3.75;;;15.60;74.60;;;;;;5054877;28;20393;-87
2021/05/17 13:06:31;;;;;;;5.55;4.10;;;15.80;74.40;;;;;;5071143;28;20048;-83
2021/05/17 13:09:07;;;;;;;7.35;5.15;;;16.00;74.30;;;;;;5073390;28;20117;-78
2021/05/17 13:11:37;;;;;;;7.47;5.40;;;16.20;74.40;;;;;;5072732;28;20064;-82
2021/05/17 13:14:05;;;;;;;8.38;5.30;;;16.40;74.00;;;;;;5078159;28;20106;-82
2021/05/17 13:16:43;;;;;;;8.23;5.60;;;16.70;73.60;;;;;;5071891;28;20045;-82
2021/05/17 13:30:35;;;;;;;6.55;4.68;;;18.10;71.30;;;;;;5093865;28;20131;-81
2021/05/17 13:33:01;;;;;;;7.57;4.68;;;18.10;70.80;;;;;;5077959;28;20044;-86